createdAt,value
2023-01-12T00:02:36.383Z,23.10
2023-01-12T00:06:01.654Z,22.38
2023-01-12T00:09:24.280Z,22.33
2023-01-12T00:12:49.860Z,22.77
2023-01-12T00:16:39.404Z,23.38
2023-01-12T00:19:48.166Z,21.90
2023-01-12T00:23:08.411Z,23.17
2023-01-12T00:26:24.244Z,23.13
2023-01-12T00:29:50.708Z,23.40
2023-01-12T00:33:00.258Z,22.13
2023-01-12T00:36:27.750Z,23.63
2023-01-12T00:40:01.709Z,22.83
2023-01-12T00:43:37.010Z,23.40
2023-01-12T00:46:48.490Z,22.05
2023-01-12T00:50:10.418Z,25.20
2023-01-12T00:53:31.587Z,24.02
2023-01-12T00:56:50.832Z,23.23
2023-01-12T01:00:06.673Z,22.57
2023-01-12T01:03:36.537Z,22.60
2023-01-12T01:07:00.420Z,21.98
2023-01-12T01:10:04.390Z,22.02
2023-01-12T01:13:15.020Z,22.20
2023-01-12T01:16:25.065Z,23.40
2023-01-12T01:19:28.694Z,22.60
2023-01-12T01:22:35.906Z,23.58
2023-01-12T01:25:39.986Z,24.50
2023-01-12T01:28:56.837Z,24.15
2023-01-12T01:32:13.525Z,25.30
2023-01-12T01:35:40.354Z,25.63
2023-01-12T01:39:02.406Z,25.00
2023-01-12T01:42:05.862Z,25.73
2023-01-12T01:45:17.380Z,27.65
2023-01-12T01:48:43.522Z,29.43
2023-01-12T01:52:25.408Z,29.77
2023-01-12T01:56:02.621Z,30.92
2023-01-12T01:59:18.526Z,31.30
2023-01-12T02:02:41.439Z,32.70
2023-01-12T02:06:05.486Z,32.07
2023-01-12T02:09:31.095Z,31.88
2023-01-12T02:13:03.362Z,33.17
2023-01-12T02:16:21.797Z,33.75
2023-01-12T02:19:53.905Z,33.22
2023-01-12T02:23:27.880Z,32.83
2023-01-12T02:27:08.377Z,33.85
2023-01-12T02:30:35.143Z,33.83
2023-01-12T02:34:09.393Z,34.08
2023-01-12T02:37:19.421Z,31.60
2023-01-12T02:40:45.215Z,32.50
2023-01-12T02:44:01.380Z,31.50
2023-01-12T02:47:22.974Z,29.42
2023-01-12T02:50:50.099Z,29.95
2023-01-12T02:54:14.890Z,27.58
2023-01-12T02:57:31.323Z,28.60
2023-01-12T03:00:38.335Z,28.95
2023-01-12T03:03:42.662Z,30.75
2023-01-12T03:06:58.198Z,28.52
2023-01-12T03:10:40.208Z,28.08
2023-01-12T03:14:22.223Z,25.13
2023-01-12T03:17:45.179Z,25.50
2023-01-12T03:21:08.065Z,23.77
2023-01-12T03:24:28.699Z,24.42
2023-01-12T03:27:53.148Z,23.13
2023-01-12T03:31:16.591Z,23.80
2023-01-12T03:34:38.145Z,23.95
2023-01-12T03:38:02.420Z,23.55
2023-01-12T03:41:26.857Z,23.02
2023-01-12T03:44:53.260Z,22.70
2023-01-12T03:48:44.073Z,22.17
2023-01-12T03:52:03.580Z,21.92
2023-01-12T03:55:12.477Z,22.13
2023-01-12T03:58:17.532Z,20.13
2023-01-12T04:01:39.244Z,18.83
2023-01-12T04:05:00.268Z,20.03
2023-01-12T04:08:20.082Z,20.58
2023-01-12T04:11:55.197Z,19.85
2023-01-12T04:15:06.240Z,19.48
2023-01-12T04:18:26.045Z,18.15
2023-01-12T04:22:00.993Z,18.63
2023-01-12T04:25:09.631Z,18.70
2023-01-12T04:28:26.054Z,19.27
2023-01-12T04:31:46.261Z,20.02
2023-01-12T04:35:05.959Z,18.77
2023-01-12T04:38:13.259Z,19.40
2023-01-12T04:41:20.185Z,20.40
2023-01-12T04:44:36.048Z,20.42
2023-01-12T04:47:55.970Z,21.25
2023-01-12T04:51:16.088Z,21.70
2023-01-12T04:54:44.085Z,21.27
2023-01-12T04:58:08.737Z,24.67
2023-01-12T05:01:32.955Z,24.05
2023-01-12T05:04:52.163Z,21.95
2023-01-12T05:08:29.665Z,20.48
2023-01-12T05:11:38.789Z,22.07
2023-01-12T05:14:56.085Z,22.00
2023-01-12T05:18:18.904Z,23.10
2023-01-12T05:21:33.726Z,16.67
2023-01-12T05:24:58.906Z,15.90
2023-01-12T05:28:15.024Z,19.47
2023-01-12T05:31:30.992Z,16.58
2023-01-12T05:35:05.730Z,15.98
2023-01-12T05:38:34.520Z,16.30
2023-01-12T05:42:03.732Z,16.60
2023-01-12T05:45:21.672Z,15.53
2023-01-12T05:48:45.903Z,15.93
2023-01-12T05:51:51.690Z,15.30
2023-01-12T05:55:14.984Z,16.75
2023-01-12T05:58:43.951Z,15.63
2023-01-12T06:02:07.276Z,15.83
2023-01-12T06:05:29.764Z,16.52
2023-01-12T06:09:08.971Z,16.92
2023-01-12T06:12:39.112Z,16.65
2023-01-12T06:15:47.170Z,16.40
2023-01-12T06:19:06.744Z,16.43
2023-01-12T06:22:30.744Z,16.15
2023-01-12T06:25:53.904Z,15.85
2023-01-12T06:29:17.882Z,16.52
2023-01-12T06:32:35.825Z,16.80
2023-01-12T06:35:54.881Z,20.63
2023-01-12T06:39:17.782Z,15.82
2023-01-12T06:42:33.001Z,13.60
2023-01-12T06:45:48.756Z,14.25
2023-01-12T06:49:15.779Z,12.60
2023-01-12T06:52:41.730Z,12.57
2023-01-12T06:55:58.948Z,110.82
2023-01-12T06:59:02.852Z,19.17
2023-01-12T07:02:07.108Z,14.73
2023-01-12T07:05:31.810Z,13.93
2023-01-12T07:08:55.363Z,13.73
2023-01-12T07:12:01.301Z,13.93
2023-01-12T07:15:24.551Z,13.00
2023-01-12T07:18:47.508Z,12.30
2023-01-12T07:21:52.440Z,12.52
2023-01-12T07:25:02.355Z,13.03
2023-01-12T07:28:09.499Z,20.00
2023-01-12T07:31:16.240Z,20.42
2023-01-12T07:34:22.683Z,18.75
2023-01-12T07:37:37.305Z,22.80
2023-01-12T07:40:58.531Z,11.87
2023-01-12T07:44:19.636Z,13.45
2023-01-12T07:47:41.413Z,12.88
2023-01-12T07:50:51.736Z,13.23
2023-01-12T07:54:08.350Z,41.40
2023-01-12T07:57:34.759Z,12.77
2023-01-12T08:00:38.423Z,12.48
2023-01-12T08:03:41.840Z,13.57
2023-01-12T08:06:59.091Z,13.55
2023-01-12T08:10:17.829Z,13.27
2023-01-12T08:18:32.768Z,13.75
2023-01-12T08:21:46.232Z,14.48
2023-01-12T08:25:10.871Z,15.35
2023-01-12T08:28:33.999Z,14.65
2023-01-12T08:31:43.146Z,13.87
2023-01-12T08:35:00.333Z,13.38
2023-01-12T08:38:14.555Z,14.43
2023-01-12T08:41:35.422Z,14.05
2023-01-12T08:44:54.724Z,13.98
2023-01-12T08:48:18.445Z,13.73
2023-01-12T08:51:38.021Z,19.67
2023-01-12T08:55:06.590Z,15.00
2023-01-12T08:58:25.683Z,14.60
2023-01-12T09:01:28.948Z,14.82
2023-01-12T09:04:39.680Z,13.20
2023-01-12T09:07:47.714Z,12.98
2023-01-12T09:11:14.119Z,12.68
2023-01-12T09:14:38.958Z,13.45
2023-01-12T09:18:29.651Z,12.38
2023-01-12T09:21:37.631Z,11.07
2023-01-12T09:25:05.208Z,9.10
2023-01-12T09:28:14.059Z,11.50
2023-01-12T09:31:28.399Z,9.93
2023-01-12T09:34:53.208Z,10.23
2023-01-12T09:38:18.623Z,12.23
2023-01-12T09:47:04.746Z,16.13
2023-01-12T09:50:38.740Z,12.43
2023-01-12T09:53:46.239Z,11.57
2023-01-12T09:57:40.927Z,48.47
2023-01-12T10:06:30.094Z,12.05
2023-01-12T10:09:55.271Z,11.45
2023-01-12T10:13:07.413Z,11.07
2023-01-12T10:21:12.168Z,11.60
2023-01-12T10:41:33.707Z,12.10
2023-01-12T10:45:28.224Z,12.15
2023-01-12T10:48:43.405Z,11.88
2023-01-12T10:52:24.602Z,17.60
2023-01-12T10:55:51.951Z,18.02
2023-01-12T10:59:05.778Z,12.30
2023-01-12T11:02:16.445Z,11.68
2023-01-12T11:05:41.605Z,11.82
2023-01-12T11:09:01.298Z,21.55
2023-01-12T11:12:42.557Z,11.38
2023-01-12T11:16:25.239Z,12.20
2023-01-12T11:24:34.810Z,13.10
2023-01-12T11:27:50.569Z,11.80
2023-01-12T11:35:59.420Z,12.97
2023-01-12T11:39:13.311Z,11.40
2023-01-12T11:42:40.338Z,11.88
2023-01-12T11:45:58.296Z,12.65
2023-01-12T11:49:28.199Z,12.57
2023-01-12T11:52:41.080Z,12.50
2023-01-12T11:56:16.420Z,12.18
2023-01-12T11:59:41.725Z,12.00
2023-01-12T12:03:36.017Z,12.07
2023-01-12T12:07:18.205Z,15.82
2023-01-12T12:10:48.595Z,12.47
2023-01-12T12:14:12.035Z,12.57
2023-01-12T12:17:55.298Z,12.93
2023-01-12T12:21:28.533Z,11.77
2023-01-12T12:25:23.329Z,14.75
2023-01-12T12:34:39.544Z,11.43
2023-01-12T12:38:38.427Z,12.23
2023-01-12T12:43:22.075Z,13.07
2023-01-12T12:47:28.128Z,12.18
2023-01-12T12:50:40.213Z,12.10
2023-01-12T12:53:50.632Z,11.75
2023-01-12T12:56:59.086Z,12.68
2023-01-12T13:00:56.301Z,12.55
2023-01-12T13:04:11.097Z,14.15
2023-01-12T13:07:21.858Z,12.50
2023-01-12T13:10:31.096Z,11.85
2023-01-12T13:14:01.623Z,12.82
2023-01-12T13:17:20.724Z,13.50
2023-01-12T13:20:49.660Z,12.48
2023-01-12T13:24:18.437Z,13.43
2023-01-12T13:28:00.877Z,12.80
2023-01-12T13:31:38.059Z,13.70
2023-01-12T13:34:44.274Z,12.30
2023-01-12T13:37:55.062Z,12.80
2023-01-12T13:41:41.102Z,13.20
2023-01-12T13:45:29.307Z,13.10
2023-01-12T13:48:36.012Z,13.65
2023-01-12T13:51:58.229Z,13.73
2023-01-12T13:55:29.498Z,14.43
2023-01-12T13:58:50.381Z,14.13
2023-01-12T14:02:05.158Z,14.90
2023-01-12T14:05:26.267Z,15.10
2023-01-12T14:09:08.468Z,14.85
2023-01-12T14:12:54.348Z,14.27
2023-01-12T14:16:35.324Z,15.10
2023-01-12T14:19:40.648Z,15.73
2023-01-12T14:23:09.663Z,16.02
2023-01-12T14:30:43.529Z,15.40
2023-01-12T14:34:32.432Z,13.63
2023-01-12T14:38:04.693Z,14.52
2023-01-12T14:41:41.697Z,13.13
2023-01-12T14:45:16.020Z,13.82
2023-01-12T14:54:11.009Z,12.20
2023-01-12T14:57:36.988Z,13.10
2023-01-12T15:00:54.459Z,12.70
2023-01-12T15:04:13.720Z,12.57
2023-01-12T15:07:40.959Z,13.15
2023-01-12T15:11:07.609Z,17.70
2023-01-12T15:14:41.182Z,12.80
2023-01-12T15:18:12.589Z,13.15
2023-01-12T15:21:35.160Z,14.63
2023-01-12T15:24:59.433Z,12.50
2023-01-12T15:28:11.388Z,15.33
2023-01-12T15:31:28.819Z,13.00
2023-01-12T15:34:37.868Z,12.82
2023-01-12T15:38:00.050Z,11.57
2023-01-12T15:41:05.052Z,14.02
2023-01-12T15:44:30.472Z,14.90
2023-01-12T15:47:39.908Z,14.13
2023-01-12T15:50:45.996Z,12.95
2023-01-12T15:53:52.885Z,12.65
2023-01-12T15:57:02.095Z,15.25
2023-01-12T16:00:16.243Z,15.87
2023-01-12T16:03:54.518Z,14.57
2023-01-12T16:06:53.418Z,16.05
2023-01-12T16:10:01.440Z,16.17
2023-01-12T16:13:24.213Z,15.85
2023-01-12T16:16:40.674Z,15.70
2023-01-12T16:20:02.225Z,16.33
2023-01-12T16:23:19.109Z,14.95
2023-01-12T16:26:45.172Z,17.05
2023-01-12T16:30:08.624Z,16.75
2023-01-12T16:33:29.398Z,18.70
2023-01-12T16:37:02.152Z,18.67
2023-01-12T16:40:13.253Z,16.40
2023-01-12T16:43:21.458Z,16.25
2023-01-12T16:46:26.167Z,17.08
2023-01-12T16:49:49.195Z,17.63
2023-01-12T16:53:06.268Z,18.20
2023-01-12T16:56:30.268Z,17.35
2023-01-12T16:59:51.420Z,18.02
2023-01-12T17:03:13.758Z,19.05
2023-01-12T17:06:26.395Z,18.33
2023-01-12T17:09:51.158Z,22.42
2023-01-12T17:13:17.077Z,19.42
2023-01-12T17:16:34.665Z,17.60
2023-01-12T17:19:56.843Z,17.08
2023-01-12T17:23:23.994Z,16.37
2023-01-12T17:26:49.722Z,17.10
2023-01-12T17:30:10.611Z,17.42
2023-01-12T17:33:24.779Z,17.67
2023-01-12T17:36:41.120Z,17.48
2023-01-12T17:39:44.605Z,16.93
2023-01-12T17:43:04.941Z,18.00
2023-01-12T17:46:19.300Z,17.63
2023-01-12T17:49:25.488Z,17.85
2023-01-12T17:52:40.218Z,24.50
2023-01-12T17:55:49.201Z,20.37
2023-01-12T17:58:57.324Z,20.95
2023-01-12T18:02:07.721Z,21.65
2023-01-12T18:05:11.275Z,24.48
2023-01-12T18:08:21.433Z,21.15
2023-01-12T18:11:32.144Z,22.43
2023-01-12T18:14:38.421Z,25.08
2023-01-12T18:17:43.559Z,26.67
2023-01-12T18:21:15.988Z,26.38
2023-01-12T18:24:23.240Z,24.58
2023-01-12T18:27:35.062Z,25.43
2023-01-12T18:30:44.755Z,24.38
2023-01-12T18:34:08.123Z,24.42
2023-01-12T18:37:24.512Z,26.52
2023-01-12T18:41:05.870Z,25.60
2023-01-12T18:44:15.781Z,27.10
2023-01-12T18:47:44.425Z,26.13
2023-01-12T18:51:19.694Z,25.08
2023-01-12T18:54:37.562Z,24.60
2023-01-12T18:57:54.785Z,24.35
2023-01-12T19:01:18.556Z,25.40
2023-01-12T19:04:39.017Z,26.02
2023-01-12T19:08:02.901Z,24.98
2023-01-12T19:11:23.957Z,25.63
2023-01-12T19:15:01.314Z,24.98
2023-01-12T19:18:19.679Z,24.60
2023-01-12T19:21:45.120Z,25.50
2023-01-12T19:25:09.697Z,26.33
2023-01-12T19:28:38.431Z,26.25
2023-01-12T19:31:45.341Z,25.70
2023-01-12T19:35:06.175Z,25.47
2023-01-12T19:38:17.400Z,25.60
2023-01-12T19:41:52.327Z,26.08
2023-01-12T19:45:10.474Z,26.63
2023-01-12T19:48:20.005Z,26.48
2023-01-12T19:51:36.950Z,25.57
2023-01-12T19:55:01.544Z,26.65
2023-01-12T19:58:12.761Z,25.73
2023-01-12T20:01:21.892Z,25.48
2023-01-12T20:04:32.422Z,26.88
2023-01-12T20:07:35.621Z,27.60
2023-01-12T20:10:45.865Z,27.92
2023-01-12T20:13:50.817Z,28.20
2023-01-12T20:16:57.179Z,29.27
2023-01-12T20:20:01.231Z,29.08
2023-01-12T20:23:09.325Z,29.90
2023-01-12T20:26:30.381Z,29.88
2023-01-12T20:29:51.540Z,31.02
2023-01-12T20:33:14.625Z,30.67
2023-01-12T20:36:36.663Z,31.27
2023-01-12T20:40:01.476Z,30.47
2023-01-12T20:43:23.583Z,29.33
2023-01-12T20:46:36.945Z,31.88
2023-01-12T20:49:47.383Z,30.33
2023-01-12T20:52:52.972Z,31.48
2023-01-12T20:56:04.278Z,30.80
2023-01-12T20:59:20.827Z,30.08
2023-01-12T21:02:38.485Z,29.63
2023-01-12T21:06:08.512Z,29.48
2023-01-12T21:09:31.425Z,28.48
2023-01-12T21:12:57.456Z,28.07
2023-01-12T21:16:21.228Z,31.10
2023-01-12T21:19:24.309Z,34.88
2023-01-12T21:22:30.931Z,37.63
2023-01-12T21:25:43.952Z,35.40
2023-01-12T21:28:51.137Z,35.53
2023-01-12T21:32:14.350Z,36.13
2023-01-12T21:35:38.481Z,37.90
2023-01-12T21:39:02.668Z,35.03
2023-01-12T21:42:44.483Z,37.15
2023-01-12T21:46:07.614Z,35.10
2023-01-12T21:49:17.295Z,36.95
2023-01-12T21:52:23.983Z,36.95
2023-01-12T21:55:34.382Z,39.38
2023-01-12T21:58:38.430Z,40.00
2023-01-12T22:01:52.573Z,40.80
2023-01-12T22:05:13.959Z,40.92
2023-01-12T22:08:24.412Z,40.38
2023-01-12T22:11:40.911Z,39.97
2023-01-12T22:14:44.445Z,39.33
2023-01-12T22:17:55.829Z,40.07
2023-01-12T22:21:10.064Z,40.28
2023-01-12T22:24:17.171Z,39.58
2023-01-12T22:27:27.544Z,40.15
2023-01-12T22:30:37.271Z,40.42
2023-01-12T22:33:51.240Z,39.80
2023-01-12T22:36:54.505Z,39.35
2023-01-12T22:40:22.263Z,41.00
2023-01-12T22:43:50.389Z,39.25
2023-01-12T22:47:16.172Z,40.58
2023-01-12T22:50:44.212Z,38.50
2023-01-12T22:54:07.230Z,39.08
2023-01-12T22:57:29.206Z,38.50
2023-01-12T23:00:53.130Z,37.50
2023-01-12T23:04:13.047Z,37.80
2023-01-12T23:07:37.098Z,36.63
2023-01-12T23:10:54.321Z,37.15
2023-01-12T23:14:15.180Z,37.03
2023-01-12T23:17:36.984Z,37.50
2023-01-12T23:20:59.167Z,38.25
2023-01-12T23:24:15.209Z,36.57
2023-01-12T23:27:21.253Z,35.55
2023-01-12T23:30:27.588Z,38.67
2023-01-12T23:33:49.787Z,38.47
2023-01-12T23:36:53.099Z,37.17
2023-01-12T23:40:10.086Z,37.20
2023-01-12T23:43:17.214Z,36.00
2023-01-12T23:46:24.824Z,36.72
2023-01-12T23:49:38.500Z,36.65
2023-01-12T23:52:50.076Z,35.70
2023-01-12T23:56:20.266Z,36.17
2023-01-12T23:59:23.474Z,34.83
